createdAt,value
2023-01-07T00:02:47.225Z,3.25
2023-01-07T00:05:51.815Z,3.22
2023-01-07T00:08:58.273Z,3.58
2023-01-07T00:12:02.791Z,3.45
2023-01-07T00:15:07.759Z,4.00
2023-01-07T00:18:13.406Z,3.35
2023-01-07T00:21:19.633Z,3.00
2023-01-07T00:24:24.178Z,3.10
2023-01-07T00:27:28.716Z,3.45
2023-01-07T00:30:33.293Z,3.65
2023-01-07T00:33:52.101Z,3.03
2023-01-07T00:37:16.577Z,2.58
2023-01-07T00:40:22.023Z,2.65
2023-01-07T00:43:26.666Z,3.25
2023-01-07T00:46:32.431Z,4.30
2023-01-07T00:49:37.435Z,3.95
2023-01-07T00:52:41.966Z,4.10
2023-01-07T00:55:48.441Z,4.18
2023-01-07T00:58:53.039Z,4.60
2023-01-07T01:01:57.799Z,4.35
2023-01-07T01:05:02.653Z,4.05
2023-01-07T01:08:10.271Z,3.80
2023-01-07T01:11:16.159Z,3.70
2023-01-07T01:14:20.652Z,3.83
2023-01-07T01:17:25.255Z,4.75
2023-01-07T01:20:29.808Z,5.65
2023-01-07T01:23:34.803Z,5.13
2023-01-07T01:26:39.369Z,5.63
2023-01-07T01:29:45.305Z,5.72
2023-01-07T01:32:51.282Z,5.30
2023-01-07T01:35:55.866Z,5.50
2023-01-07T01:39:00.599Z,5.15
2023-01-07T01:42:21.807Z,4.53
2023-01-07T01:45:26.748Z,4.35
2023-01-07T01:48:35.387Z,4.30
2023-01-07T01:51:45.617Z,3.70
2023-01-07T01:54:57.907Z,4.38
2023-01-07T01:58:08.218Z,3.40
2023-01-07T02:01:13.165Z,4.03
2023-01-07T02:04:20.701Z,3.95
2023-01-07T02:07:25.585Z,3.85
2023-01-07T02:10:35.158Z,4.10
2023-01-07T02:14:03.464Z,4.07
2023-01-07T02:17:26.796Z,5.07
2023-01-07T02:20:46.273Z,4.13
2023-01-07T02:24:15.211Z,5.78
2023-01-07T02:27:38.564Z,4.80
2023-01-07T02:31:09.033Z,3.88
2023-01-07T02:34:47.261Z,4.32
2023-01-07T02:38:01.155Z,4.55
2023-01-07T02:41:08.308Z,4.40
2023-01-07T02:44:38.215Z,4.63
2023-01-07T02:47:54.347Z,4.50
2023-01-07T02:50:58.902Z,4.28
2023-01-07T02:54:06.454Z,4.20
2023-01-07T02:57:22.305Z,3.58
2023-01-07T03:01:00.392Z,3.45
2023-01-07T03:04:32.542Z,3.47
2023-01-07T03:08:13.400Z,3.47
2023-01-07T03:11:19.821Z,3.75
2023-01-07T03:14:38.777Z,4.38
2023-01-07T03:17:51.798Z,4.53
2023-01-07T03:21:05.922Z,3.75
2023-01-07T03:24:10.735Z,5.03
2023-01-07T03:27:17.411Z,4.47
2023-01-07T03:30:24.979Z,4.22
2023-01-07T03:33:44.531Z,5.03
2023-01-07T03:36:57.470Z,4.13
2023-01-07T03:40:06.457Z,5.72
2023-01-07T03:43:17.800Z,4.90
2023-01-07T03:46:22.673Z,5.57
2023-01-07T03:49:27.841Z,4.97
2023-01-07T03:52:32.416Z,4.95
2023-01-07T03:55:37.184Z,4.68
2023-01-07T03:58:42.156Z,5.10
2023-01-07T04:01:47.469Z,5.53
2023-01-07T04:04:52.107Z,5.05
2023-01-07T04:07:58.529Z,5.53
2023-01-07T04:11:07.554Z,5.15
2023-01-07T04:14:14.351Z,5.20
2023-01-07T04:17:18.939Z,4.68
2023-01-07T04:20:23.631Z,5.05
2023-01-07T04:23:28.757Z,4.63
2023-01-07T04:26:33.814Z,4.72
2023-01-07T04:29:38.664Z,5.00
2023-01-07T04:32:43.461Z,4.93
2023-01-07T04:35:48.631Z,5.10
2023-01-07T04:38:54.320Z,4.90
2023-01-07T04:42:01.613Z,4.47
2023-01-07T04:45:08.145Z,5.05
2023-01-07T04:48:13.292Z,4.95
2023-01-07T04:51:20.197Z,5.20
2023-01-07T04:54:24.907Z,4.85
2023-01-07T04:57:30.063Z,4.55
2023-01-07T05:00:34.684Z,4.93
2023-01-07T05:03:40.312Z,5.30
2023-01-07T05:06:45.582Z,5.25
2023-01-07T05:09:50.799Z,5.63
2023-01-07T05:12:56.284Z,3.95
2023-01-07T05:16:02.593Z,3.60
2023-01-07T05:19:09.378Z,4.25
2023-01-07T05:22:18.249Z,4.15
2023-01-07T05:25:22.960Z,3.70
2023-01-07T05:28:27.632Z,4.07
2023-01-07T05:31:32.694Z,3.90
2023-01-07T05:34:37.333Z,4.35
2023-01-07T05:37:41.900Z,4.07
2023-01-07T05:40:49.798Z,4.28
2023-01-07T05:43:57.951Z,4.20
2023-01-07T05:47:02.545Z,5.28
2023-01-07T05:50:07.324Z,4.47
2023-01-07T05:53:12.338Z,4.50
2023-01-07T05:56:16.890Z,4.35
2023-01-07T05:59:21.365Z,4.22
2023-01-07T06:02:25.965Z,4.50
2023-01-07T06:05:30.774Z,3.95
2023-01-07T06:08:36.533Z,4.35
2023-01-07T06:11:41.047Z,4.20
2023-01-07T06:14:45.537Z,4.25
2023-01-07T06:17:50.078Z,4.10
2023-01-07T06:20:57.906Z,3.58
2023-01-07T06:24:02.558Z,3.90
2023-01-07T06:27:07.048Z,4.15
2023-01-07T06:30:12.344Z,3.70
2023-01-07T06:33:17.555Z,3.75
2023-01-07T06:36:22.035Z,3.85
2023-01-07T06:39:26.604Z,4.25
2023-01-07T06:42:31.132Z,4.25
2023-01-07T06:45:35.694Z,3.78
2023-01-07T06:48:40.178Z,4.22
2023-01-07T06:51:45.634Z,4.28
2023-01-07T06:54:50.163Z,4.47
2023-01-07T06:57:54.822Z,3.80
2023-01-07T07:01:07.441Z,3.20
2023-01-07T07:04:12.071Z,3.63
2023-01-07T07:07:17.315Z,4.05
2023-01-07T07:10:21.928Z,4.05
2023-01-07T07:13:26.436Z,3.90
2023-01-07T07:16:32.623Z,3.88
2023-01-07T07:19:37.431Z,3.92
2023-01-07T07:22:48.797Z,3.35
2023-01-07T07:25:53.281Z,3.90
2023-01-07T07:28:57.821Z,3.97
2023-01-07T07:32:03.103Z,4.32
2023-01-07T07:35:08.138Z,4.15
2023-01-07T07:38:12.726Z,3.90
2023-01-07T07:41:17.283Z,3.90
2023-01-07T07:44:21.928Z,4.47
2023-01-07T07:47:26.464Z,5.30
2023-01-07T07:50:30.990Z,5.20
2023-01-07T07:53:35.556Z,5.03
2023-01-07T07:56:40.053Z,5.32
2023-01-07T07:59:46.561Z,4.55
2023-01-07T08:02:51.055Z,5.65
2023-01-07T08:05:55.536Z,5.28
2023-01-07T08:09:00.194Z,4.55
2023-01-07T08:12:05.003Z,5.13
2023-01-07T08:15:10.039Z,4.43
2023-01-07T08:18:14.609Z,4.78
2023-01-07T08:21:19.094Z,4.75
2023-01-07T08:24:24.518Z,5.07
2023-01-07T08:27:29.416Z,4.70
2023-01-07T08:30:34.008Z,4.47
2023-01-07T08:33:39.673Z,4.85
2023-01-07T08:36:44.303Z,4.72
2023-01-07T08:39:48.773Z,4.95
2023-01-07T08:42:53.837Z,5.25
2023-01-07T08:45:58.358Z,5.28
2023-01-07T08:49:03.033Z,4.72
2023-01-07T08:52:09.373Z,4.65
2023-01-07T08:55:14.112Z,4.20
2023-01-07T08:58:18.651Z,4.47
2023-01-07T09:01:23.321Z,4.03
2023-01-07T09:04:28.047Z,4.70
2023-01-07T09:07:32.568Z,4.72
2023-01-07T09:10:37.069Z,3.65
2023-01-07T09:13:44.606Z,4.03
2023-01-07T09:16:49.112Z,3.40
2023-01-07T09:19:53.588Z,3.88
2023-01-07T09:22:58.315Z,3.70
2023-01-07T09:26:03.182Z,3.85
2023-01-07T09:29:07.761Z,3.55
2023-01-07T09:32:12.276Z,3.83
2023-01-07T09:35:16.848Z,4.03
2023-01-07T09:38:21.459Z,3.42
2023-01-07T09:41:47.159Z,3.28
2023-01-07T09:45:19.054Z,3.60
2023-01-07T09:48:31.364Z,3.03
2023-01-07T09:51:43.798Z,3.50
2023-01-07T09:54:53.661Z,3.08
2023-01-07T09:57:59.651Z,2.58
2023-01-07T10:01:39.695Z,2.35
2023-01-07T10:05:14.750Z,2.88
2023-01-07T10:08:30.968Z,2.45
2023-01-07T10:11:57.624Z,2.10
2023-01-07T10:15:23.575Z,2.42
2023-01-07T10:18:33.036Z,2.30
2023-01-07T10:21:42.907Z,2.20
2023-01-07T10:24:56.020Z,2.35
2023-01-07T10:28:06.401Z,2.10
2023-01-07T10:31:18.274Z,2.33
2023-01-07T10:34:24.314Z,1.80
2023-01-07T10:37:33.107Z,1.98
2023-01-07T10:40:48.662Z,2.40
2023-01-07T10:44:22.528Z,2.15
2023-01-07T10:47:49.680Z,1.83
2023-01-07T10:51:30.442Z,1.80
2023-01-07T10:54:56.274Z,2.33
2023-01-07T10:58:02.380Z,2.08
2023-01-07T11:01:08.145Z,1.98
2023-01-07T11:04:15.182Z,1.92
2023-01-07T11:07:40.313Z,1.83
2023-01-07T11:10:44.877Z,1.80
2023-01-07T11:14:11.571Z,1.40
2023-01-07T11:17:31.441Z,1.48
2023-01-07T11:20:36.356Z,1.27
2023-01-07T11:23:43.919Z,1.63
2023-01-07T11:26:49.270Z,1.55
2023-01-07T11:30:19.759Z,1.58
2023-01-07T11:34:01.268Z,1.30
2023-01-07T11:37:06.763Z,2.17
2023-01-07T11:40:14.234Z,1.58
2023-01-07T11:43:23.857Z,1.67
2023-01-07T11:46:31.435Z,1.90
2023-01-07T11:49:44.282Z,1.30
2023-01-07T11:52:50.338Z,1.17
2023-01-07T11:55:59.315Z,1.60
2023-01-07T11:59:15.770Z,1.50
2023-01-07T12:02:26.227Z,1.45
2023-01-07T12:05:31.193Z,1.38
2023-01-07T12:08:35.814Z,1.73
2023-01-07T12:11:42.744Z,1.70
2023-01-07T12:14:48.510Z,1.70
2023-01-07T12:18:06.579Z,1.73
2023-01-07T12:21:34.490Z,1.42
2023-01-07T12:24:40.364Z,1.25
2023-01-07T12:27:58.920Z,1.30
2023-01-07T12:31:34.530Z,1.48
2023-01-07T12:35:14.649Z,1.75
2023-01-07T12:38:46.254Z,1.35
2023-01-07T12:42:03.815Z,1.55
2023-01-07T12:45:18.196Z,1.88
2023-01-07T12:48:40.897Z,1.40
2023-01-07T12:51:47.323Z,1.45
2023-01-07T12:54:57.977Z,1.20
2023-01-07T12:58:40.067Z,1.30
2023-01-07T13:01:59.381Z,1.30
2023-01-07T13:05:20.077Z,1.58
2023-01-07T13:08:30.404Z,1.40
2023-01-07T13:12:00.324Z,1.10
2023-01-07T13:15:09.936Z,1.73
2023-01-07T13:18:18.981Z,1.50
2023-01-07T13:21:23.813Z,1.40
2023-01-07T13:24:55.725Z,1.55
2023-01-07T13:31:07.399Z,1.60
2023-01-07T13:34:38.276Z,1.58
2023-01-07T13:38:06.176Z,1.17
2023-01-07T13:41:19.880Z,1.52
2023-01-07T13:44:49.262Z,1.40
2023-01-07T13:47:57.027Z,1.35
2023-01-07T13:51:05.068Z,1.40
2023-01-07T13:54:12.683Z,1.50
2023-01-07T13:57:26.204Z,1.48
2023-01-07T14:00:40.827Z,1.20
2023-01-07T14:03:53.428Z,1.85
2023-01-07T14:10:05.860Z,1.60
2023-01-07T14:13:41.804Z,2.00
2023-01-07T14:16:59.512Z,1.63
2023-01-07T14:20:17.055Z,1.40
2023-01-07T14:23:40.746Z,1.30
2023-01-07T14:27:38.710Z,1.42
2023-01-07T14:30:44.456Z,1.50
2023-01-07T14:33:53.643Z,1.27
2023-01-07T14:36:59.374Z,1.42
2023-01-07T14:40:34.681Z,1.27
2023-01-07T14:43:43.260Z,1.50
2023-01-07T14:46:48.878Z,1.30
2023-01-07T14:50:23.353Z,1.65
2023-01-07T14:53:57.030Z,1.77
2023-01-07T14:57:45.355Z,1.55
2023-01-07T15:01:05.016Z,1.20
2023-01-07T15:04:18.554Z,1.63
2023-01-07T15:07:30.154Z,1.35
2023-01-07T15:10:53.300Z,1.50
2023-01-07T15:14:21.525Z,1.23
2023-01-07T15:17:26.561Z,1.30
2023-01-07T15:20:48.389Z,1.58
2023-01-07T15:24:29.976Z,1.70
2023-01-07T15:27:49.689Z,1.20
2023-01-07T15:31:05.011Z,1.60
2023-01-07T15:34:16.605Z,1.75
2023-01-07T15:37:21.519Z,1.40
2023-01-07T15:40:27.763Z,2.20
2023-01-07T15:43:33.473Z,1.92
2023-01-07T15:46:40.959Z,2.83
2023-01-07T15:49:45.458Z,3.88
2023-01-07T15:52:57.207Z,1.90
2023-01-07T15:56:07.611Z,1.83
2023-01-07T15:59:13.383Z,2.70
2023-01-07T16:02:31.312Z,3.80
2023-01-07T16:05:39.187Z,3.90
2023-01-07T16:08:44.268Z,3.60
2023-01-07T16:11:49.489Z,11.00
2023-01-07T16:14:54.022Z,20.15
2023-01-07T16:18:04.023Z,3.88
2023-01-07T16:21:13.735Z,4.07
2023-01-07T16:24:19.381Z,3.50
2023-01-07T16:27:29.889Z,2.22
2023-01-07T16:30:40.052Z,2.20
2023-01-07T16:33:45.890Z,2.40
2023-01-07T16:36:55.481Z,2.35
2023-01-07T16:40:00.426Z,2.17
2023-01-07T16:43:30.593Z,2.13
2023-01-07T16:46:42.622Z,3.08
2023-01-07T16:49:47.236Z,2.70
2023-01-07T16:52:55.660Z,3.22
2023-01-07T16:56:14.271Z,2.80
2023-01-07T16:59:20.964Z,2.60
2023-01-07T17:02:40.137Z,2.50
2023-01-07T17:05:59.358Z,2.28
2023-01-07T17:09:04.102Z,2.97
2023-01-07T17:12:27.111Z,2.50
2023-01-07T17:15:31.582Z,1.92
2023-01-07T17:18:36.052Z,2.78
2023-01-07T17:21:43.332Z,2.50
2023-01-07T17:24:49.532Z,2.47
2023-01-07T17:28:06.587Z,2.38
2023-01-07T17:31:11.157Z,2.35
2023-01-07T17:34:16.318Z,2.53
2023-01-07T17:37:20.951Z,2.33
2023-01-07T17:40:25.541Z,3.03
2023-01-07T17:43:39.373Z,3.00
2023-01-07T17:46:43.893Z,2.85
2023-01-07T17:49:49.602Z,2.95
2023-01-07T17:52:54.812Z,3.25
2023-01-07T17:56:03.250Z,2.85
2023-01-07T17:59:15.427Z,3.83
2023-01-07T18:02:25.899Z,3.90
2023-01-07T18:05:30.501Z,4.50
2023-01-07T18:08:35.528Z,3.80
2023-01-07T18:12:02.260Z,4.63
2023-01-07T18:15:34.228Z,4.68
2023-01-07T18:18:38.777Z,4.90
2023-01-07T18:21:43.256Z,4.43
2023-01-07T18:24:49.008Z,4.95
2023-01-07T18:27:53.628Z,4.68
2023-01-07T18:30:58.205Z,4.70
2023-01-07T18:34:02.965Z,8.60
2023-01-07T18:37:07.947Z,9.77
2023-01-07T18:40:15.611Z,9.77
2023-01-07T18:43:20.143Z,3.53
2023-01-07T18:46:24.702Z,3.75
2023-01-07T18:49:29.240Z,3.55
2023-01-07T18:52:33.851Z,4.10
2023-01-07T18:55:40.152Z,3.53
2023-01-07T18:58:46.531Z,3.20
2023-01-07T19:01:53.106Z,3.70
2023-01-07T19:04:57.752Z,2.97
2023-01-07T19:08:02.230Z,4.60
2023-01-07T19:11:13.222Z,3.47
2023-01-07T19:14:17.781Z,10.73
2023-01-07T19:17:22.544Z,4.32
2023-01-07T19:20:27.088Z,4.32
2023-01-07T19:23:31.749Z,6.47
2023-01-07T19:26:36.292Z,11.07
2023-01-07T19:29:40.784Z,8.68
2023-01-07T19:32:46.445Z,6.68
2023-01-07T19:36:00.741Z,7.30
2023-01-07T19:39:05.483Z,3.97
2023-01-07T19:42:10.079Z,4.60
2023-01-07T19:45:14.884Z,4.30
2023-01-07T19:48:19.572Z,4.00
2023-01-07T19:51:24.088Z,3.88
2023-01-07T19:54:28.636Z,4.32
2023-01-07T19:57:34.150Z,3.83
2023-01-07T20:00:38.659Z,4.20
2023-01-07T20:03:44.566Z,5.70
2023-01-07T20:06:50.395Z,6.45
2023-01-07T20:09:54.934Z,4.57
2023-01-07T20:12:59.583Z,5.75
2023-01-07T20:16:09.581Z,4.93
2023-01-07T20:19:14.140Z,8.02
2023-01-07T20:22:18.788Z,5.15
2023-01-07T20:25:23.290Z,4.65
2023-01-07T20:28:28.926Z,6.13
2023-01-07T20:31:33.528Z,6.10
2023-01-07T20:34:38.142Z,8.30
2023-01-07T20:37:42.652Z,5.80
2023-01-07T20:40:47.177Z,6.70
2023-01-07T20:43:56.916Z,6.32
2023-01-07T20:47:01.743Z,7.13
2023-01-07T20:50:06.860Z,6.80
2023-01-07T20:53:12.514Z,6.40
2023-01-07T20:56:18.984Z,9.48
2023-01-07T20:59:23.544Z,7.78
2023-01-07T21:02:28.239Z,8.25
2023-01-07T21:05:33.061Z,16.15
2023-01-07T21:08:38.298Z,8.88
2023-01-07T21:11:43.351Z,5.55
2023-01-07T21:14:47.854Z,6.30
2023-01-07T21:17:53.374Z,8.07
2023-01-07T21:20:57.846Z,8.65
2023-01-07T21:24:02.448Z,6.40
2023-01-07T21:27:06.940Z,5.72
2023-01-07T21:30:14.474Z,5.40
2023-01-07T21:33:19.011Z,5.53
2023-01-07T21:36:24.910Z,4.68
2023-01-07T21:39:30.590Z,5.75
2023-01-07T21:42:36.317Z,5.85
2023-01-07T21:45:40.885Z,6.43
2023-01-07T21:48:47.106Z,5.35
2023-01-07T21:51:51.807Z,5.75
2023-01-07T21:54:56.404Z,4.78
2023-01-07T21:58:00.887Z,5.40
2023-01-07T22:01:05.994Z,4.72
2023-01-07T22:04:12.564Z,5.25
2023-01-07T22:07:19.003Z,5.60
2023-01-07T22:10:23.484Z,5.40
2023-01-07T22:13:28.103Z,5.28
2023-01-07T22:16:32.655Z,5.00
2023-01-07T22:19:37.213Z,5.35
2023-01-07T22:22:41.865Z,8.00
2023-01-07T22:25:46.427Z,7.68
2023-01-07T22:28:57.362Z,6.53
2023-01-07T22:32:01.901Z,6.85
2023-01-07T22:35:06.597Z,13.00
2023-01-07T22:38:14.220Z,9.02
2023-01-07T22:41:18.854Z,8.95
2023-01-07T22:44:24.328Z,9.82
2023-01-07T22:47:35.409Z,6.53
2023-01-07T22:50:40.245Z,6.88
2023-01-07T22:53:44.929Z,8.68
2023-01-07T22:56:50.045Z,8.07
2023-01-07T22:59:54.563Z,6.53
2023-01-07T23:02:59.148Z,9.10
2023-01-07T23:06:04.260Z,6.78
2023-01-07T23:09:08.889Z,17.98
2023-01-07T23:12:13.456Z,10.38
2023-01-07T23:15:17.964Z,8.35
2023-01-07T23:18:22.468Z,8.68
2023-01-07T23:21:27.009Z,10.73
2023-01-07T23:24:31.574Z,17.85
2023-01-07T23:27:38.111Z,9.90
2023-01-07T23:30:44.450Z,37.08
2023-01-07T23:33:49.048Z,37.28
2023-01-07T23:36:53.517Z,21.88
2023-01-07T23:39:57.988Z,32.40
2023-01-07T23:43:02.988Z,19.80
2023-01-07T23:46:08.343Z,20.23
2023-01-07T23:49:14.623Z,15.63
2023-01-07T23:52:19.697Z,8.52
2023-01-07T23:55:24.241Z,8.23
2023-01-07T23:58:31.006Z,15.73
